Terminal Aerodrome Forecast
Issued by NWS

Home | Current Version | Previous Version | Text Only | Print | Product List | Glossary Off
Versions: 1 2 3 4 5 6 7 8 9 10 11 12 13 14

000
FTUS43 KICT 260500
TAFRSL
TAF
KRSL 260520Z 2606/2706 08012KT 6SM -TSRA BKN050CB
     FM260800 05010KT P6SM VCTS BKN060CB OVC090
     FM261600 15009KT P6SM SCT250=

USA.gov is the U.S. government's official web portal to all federal, state and local government web resources and services.